createdAt,value
2022-12-18T00:00:32.472Z,74.77
2022-12-18T00:03:04.070Z,75.22
2022-12-18T00:05:36.539Z,75.39
2022-12-18T00:08:09.473Z,75.22
2022-12-18T00:10:41.188Z,75.21
2022-12-18T00:13:12.756Z,75.06
2022-12-18T00:15:44.540Z,75.23
2022-12-18T00:18:18.966Z,75.19
2022-12-18T00:20:52.320Z,75.03
2022-12-18T00:23:23.842Z,75.33
2022-12-18T00:25:55.323Z,75.61
2022-12-18T00:28:28.040Z,75.51
2022-12-18T00:31:06.138Z,75.67
2022-12-18T00:33:38.541Z,75.51
2022-12-18T00:36:14.137Z,76.05
2022-12-18T00:38:45.867Z,76.10
2022-12-18T00:41:39.944Z,75.71
2022-12-18T00:44:13.179Z,75.44
2022-12-18T00:46:45.995Z,75.04
2022-12-18T00:49:18.559Z,74.94
2022-12-18T00:51:51.570Z,74.58
2022-12-18T00:54:23.452Z,74.76
2022-12-18T00:56:56.420Z,74.35
2022-12-18T00:59:28.347Z,74.24
2022-12-18T01:02:00.013Z,74.34
2022-12-18T01:04:33.468Z,74.45
2022-12-18T01:07:05.074Z,74.92
2022-12-18T01:09:36.991Z,74.98
2022-12-18T01:12:10.229Z,74.42
2022-12-18T01:14:42.141Z,74.65
2022-12-18T01:17:13.812Z,75.23
2022-12-18T01:19:46.025Z,75.08
2022-12-18T01:22:17.642Z,75.26
2022-12-18T01:24:49.278Z,75.51
2022-12-18T01:27:20.848Z,75.82
2022-12-18T01:29:53.357Z,76.03
2022-12-18T01:32:25.452Z,75.90
2022-12-18T01:34:57.082Z,75.37
2022-12-18T01:37:28.777Z,75.38
2022-12-18T01:40:00.420Z,74.92
2022-12-18T01:42:32.071Z,75.01
2022-12-18T01:45:24.017Z,75.21
2022-12-18T01:47:57.929Z,75.42
2022-12-18T01:50:33.794Z,75.11
2022-12-18T01:53:08.644Z,74.45
2022-12-18T01:55:45.286Z,74.60
2022-12-18T01:58:18.052Z,74.90
2022-12-18T02:00:50.067Z,74.98
2022-12-18T02:03:21.824Z,74.81
2022-12-18T02:06:00.078Z,74.99
2022-12-18T02:08:36.646Z,75.05
2022-12-18T02:11:13.687Z,75.32
2022-12-18T02:13:55.282Z,75.07
2022-12-18T02:16:32.840Z,74.70
2022-12-18T02:19:08.992Z,74.51
2022-12-18T02:21:51.350Z,74.58
2022-12-18T02:24:36.788Z,74.87
2022-12-18T02:27:10.938Z,74.83
2022-12-18T02:29:54.331Z,75.06
2022-12-18T02:32:34.139Z,74.66
2022-12-18T02:35:08.734Z,74.65
2022-12-18T02:37:41.719Z,75.00
2022-12-18T02:40:16.546Z,74.72
2022-12-18T02:42:46.209Z,74.67
2022-12-18T02:45:18.452Z,74.91
2022-12-18T02:47:52.278Z,75.17
2022-12-18T02:50:31.452Z,75.65
2022-12-18T02:53:12.836Z,75.86
2022-12-18T02:55:57.025Z,75.65
2022-12-18T02:58:36.922Z,75.26
2022-12-18T03:01:17.843Z,75.28
2022-12-18T03:03:55.047Z,75.10
2022-12-18T03:06:31.928Z,75.36
2022-12-18T03:09:10.789Z,75.45
2022-12-18T03:12:08.209Z,75.55
2022-12-18T03:14:43.564Z,75.28
2022-12-18T03:17:20.127Z,75.29
2022-12-18T03:19:55.012Z,75.42
2022-12-18T03:22:29.936Z,75.05
2022-12-18T03:25:03.820Z,74.79
2022-12-18T03:27:39.288Z,75.24
2022-12-18T03:30:15.643Z,75.70
2022-12-18T03:32:50.827Z,75.81
2022-12-18T03:35:29.122Z,75.96
2022-12-18T03:38:00.988Z,75.47
2022-12-18T03:40:42.272Z,75.24
2022-12-18T03:43:19.472Z,75.04
2022-12-18T03:45:55.495Z,74.66
2022-12-18T03:48:36.761Z,74.79
2022-12-18T03:51:12.757Z,75.05
2022-12-18T03:53:53.177Z,74.94
2022-12-18T03:56:26.656Z,75.11
2022-12-18T03:58:59.427Z,75.04
2022-12-18T04:01:36.399Z,75.33
2022-12-18T04:04:10.994Z,75.26
2022-12-18T04:06:43.503Z,74.96
2022-12-18T04:09:15.381Z,75.08
2022-12-18T04:11:47.074Z,75.38
2022-12-18T04:14:18.919Z,75.44
2022-12-18T04:16:50.618Z,75.29
2022-12-18T04:19:22.216Z,75.17
2022-12-18T04:21:53.889Z,75.21
2022-12-18T04:24:25.580Z,75.29
2022-12-18T04:26:57.186Z,75.34
2022-12-18T04:29:32.635Z,75.08
2022-12-18T04:32:09.048Z,74.95
2022-12-18T04:34:40.645Z,74.91
2022-12-18T04:37:12.608Z,74.93
2022-12-18T04:39:44.345Z,74.77
2022-12-18T04:42:15.842Z,74.73
2022-12-18T04:44:47.323Z,74.86
2022-12-18T04:47:18.889Z,74.65
2022-12-18T04:49:52.864Z,74.49
2022-12-18T04:52:24.558Z,74.28
2022-12-18T04:54:56.077Z,74.16
2022-12-18T04:57:27.794Z,74.57
2022-12-18T04:59:59.405Z,74.91
2022-12-18T05:02:31.166Z,74.75
2022-12-18T05:05:02.813Z,74.54
2022-12-18T05:07:34.522Z,74.34
2022-12-18T05:10:06.913Z,74.47
2022-12-18T05:13:00.058Z,74.83
2022-12-18T05:15:34.796Z,74.95
2022-12-18T05:18:07.354Z,74.86
2022-12-18T05:20:38.844Z,74.38
2022-12-18T05:23:10.556Z,74.44
2022-12-18T05:25:42.010Z,74.94
2022-12-18T05:28:13.576Z,74.98
2022-12-18T05:30:45.062Z,74.86
2022-12-18T05:33:16.586Z,75.19
2022-12-18T05:35:52.456Z,75.13
2022-12-18T05:38:24.746Z,75.38
2022-12-18T05:40:57.084Z,75.44
2022-12-18T05:43:30.050Z,75.67
2022-12-18T05:46:05.755Z,75.66
2022-12-18T05:48:37.586Z,75.68
2022-12-18T05:51:11.212Z,75.53
2022-12-18T05:53:43.593Z,75.50
2022-12-18T05:56:17.527Z,75.20
2022-12-18T05:58:50.253Z,75.38
2022-12-18T06:01:24.306Z,75.31
2022-12-18T06:03:56.405Z,75.08
2022-12-18T06:06:29.784Z,74.83
2022-12-18T06:09:02.631Z,74.63
2022-12-18T06:11:34.244Z,75.07
2022-12-18T06:14:06.384Z,75.08
2022-12-18T06:16:38.116Z,75.16
2022-12-18T06:19:09.953Z,75.07
2022-12-18T06:21:41.438Z,75.14
2022-12-18T06:24:13.041Z,75.29
2022-12-18T06:26:44.543Z,75.49
2022-12-18T06:29:16.153Z,75.33
2022-12-18T06:31:47.787Z,75.76
2022-12-18T06:34:19.309Z,75.65
2022-12-18T06:36:50.892Z,75.63
2022-12-18T06:39:22.544Z,75.41
2022-12-18T06:41:54.217Z,75.27
2022-12-18T06:44:25.810Z,75.21
2022-12-18T06:46:57.404Z,75.31
2022-12-18T06:49:30.706Z,75.51
2022-12-18T06:52:02.429Z,75.33
2022-12-18T06:54:33.904Z,74.80
2022-12-18T06:57:05.568Z,74.60
2022-12-18T06:59:37.160Z,74.59
2022-12-18T07:02:08.840Z,74.63
2022-12-18T07:04:40.544Z,74.68
2022-12-18T07:07:12.287Z,74.67
2022-12-18T07:09:46.670Z,75.09
2022-12-18T07:12:18.380Z,75.15
2022-12-18T07:14:50.081Z,75.09
2022-12-18T07:17:21.617Z,75.45
2022-12-18T07:19:54.222Z,74.82
2022-12-18T07:22:27.540Z,74.72
2022-12-18T07:24:58.954Z,74.70
2022-12-18T07:27:30.654Z,74.27
2022-12-18T07:30:02.628Z,74.30
2022-12-18T07:32:34.649Z,74.19
2022-12-18T07:35:06.712Z,73.97
2022-12-18T07:37:38.281Z,73.55
2022-12-18T07:40:12.238Z,73.90
2022-12-18T07:42:43.746Z,74.07
2022-12-18T07:45:15.921Z,74.05
2022-12-18T07:47:47.453Z,74.27
2022-12-18T07:50:19.506Z,75.13
2022-12-18T07:52:51.209Z,75.09
2022-12-18T07:55:22.686Z,74.76
2022-12-18T07:57:59.257Z,75.12
2022-12-18T08:00:32.533Z,75.37
2022-12-18T08:03:04.476Z,75.40
2022-12-18T08:05:36.038Z,75.44
2022-12-18T08:08:07.920Z,75.26
2022-12-18T08:10:40.281Z,74.95
2022-12-18T08:13:11.758Z,74.68
2022-12-18T08:15:43.290Z,74.73
2022-12-18T08:18:14.730Z,74.61
2022-12-18T08:20:46.393Z,74.52
2022-12-18T08:23:18.051Z,74.85
2022-12-18T08:25:49.915Z,74.79
2022-12-18T08:28:21.821Z,74.51
2022-12-18T08:30:57.612Z,74.45
2022-12-18T08:33:30.444Z,74.53
2022-12-18T08:36:02.704Z,74.13
2022-12-18T08:38:35.989Z,74.52
2022-12-18T08:41:09.088Z,75.10
2022-12-18T08:43:57.641Z,74.75
2022-12-18T08:46:33.764Z,74.86
2022-12-18T08:49:05.917Z,74.43
2022-12-18T08:51:38.429Z,74.76
2022-12-18T08:54:13.640Z,74.86
2022-12-18T08:56:45.190Z,75.06
2022-12-18T08:59:19.770Z,74.98
2022-12-18T09:01:52.612Z,75.33
2022-12-18T09:04:24.540Z,74.70
2022-12-18T09:06:56.225Z,74.52
2022-12-18T09:09:28.249Z,74.62
2022-12-18T09:11:59.728Z,74.79
2022-12-18T09:14:31.460Z,74.70
2022-12-18T09:17:03.250Z,74.83
2022-12-18T09:19:35.170Z,74.53
2022-12-18T09:22:06.647Z,74.23
2022-12-18T09:24:38.281Z,74.67
2022-12-18T09:27:10.053Z,74.16
2022-12-18T09:29:41.661Z,74.69
2022-12-18T09:32:16.369Z,74.83
2022-12-18T09:34:53.619Z,74.91
2022-12-18T09:37:25.220Z,75.07
2022-12-18T09:39:56.851Z,75.38
2022-12-18T09:42:28.520Z,75.54
2022-12-18T09:45:01.075Z,75.60
2022-12-18T09:47:38.773Z,75.63
2022-12-18T09:50:24.800Z,75.14
2022-12-18T09:52:59.468Z,75.33
2022-12-18T09:55:37.572Z,75.56
2022-12-18T09:58:17.967Z,75.56
2022-12-18T10:00:49.581Z,75.54
2022-12-18T10:03:21.276Z,75.33
2022-12-18T10:06:02.129Z,74.80
2022-12-18T10:08:45.339Z,75.00
2022-12-18T10:11:32.390Z,74.90
2022-12-18T10:14:11.422Z,74.98
2022-12-18T10:16:52.086Z,74.96
2022-12-18T10:19:53.995Z,74.77
2022-12-18T10:22:40.789Z,74.44
2022-12-18T10:25:24.574Z,74.30
2022-12-18T10:28:00.273Z,74.36
2022-12-18T10:30:31.983Z,74.45
2022-12-18T10:33:06.972Z,73.87
2022-12-18T10:35:39.328Z,73.77
2022-12-18T10:38:27.121Z,74.39
2022-12-18T10:41:01.143Z,74.07
2022-12-18T10:43:35.037Z,73.79
2022-12-18T10:46:18.284Z,73.81
2022-12-18T10:49:00.546Z,73.57
2022-12-18T10:51:35.718Z,73.94
2022-12-18T10:54:09.717Z,74.08
2022-12-18T10:56:41.892Z,74.22
2022-12-18T10:59:17.094Z,74.60
2022-12-18T11:01:56.505Z,74.42
2022-12-18T11:04:30.109Z,74.42
2022-12-18T11:07:04.281Z,74.80
2022-12-18T11:09:37.442Z,74.68
2022-12-18T11:12:18.987Z,74.14
2022-12-18T11:14:53.365Z,74.13
2022-12-18T11:17:30.822Z,74.42
2022-12-18T11:20:04.055Z,74.45
2022-12-18T11:22:37.894Z,74.63
2022-12-18T11:25:33.032Z,74.49
2022-12-18T11:28:07.392Z,74.68
2022-12-18T11:30:40.404Z,74.11
2022-12-18T11:33:18.345Z,74.08
2022-12-18T11:35:54.591Z,73.95
2022-12-18T11:38:29.519Z,74.07
2022-12-18T11:41:06.770Z,74.17
2022-12-18T11:43:41.671Z,74.46
2022-12-18T11:46:19.812Z,75.43
2022-12-18T11:48:59.148Z,75.66
2022-12-18T11:51:36.263Z,75.26
2022-12-18T11:54:15.690Z,75.25
2022-12-18T11:56:51.835Z,75.53
2022-12-18T11:59:33.040Z,75.70
2022-12-18T12:02:19.073Z,75.78
2022-12-18T12:05:06.858Z,75.99
2022-12-18T12:07:47.915Z,75.73
2022-12-18T12:10:36.420Z,75.51
2022-12-18T12:13:25.253Z,75.85
2022-12-18T12:16:09.517Z,75.84
2022-12-18T12:18:56.456Z,75.90
2022-12-18T12:21:37.356Z,75.68
2022-12-18T12:24:24.375Z,75.36
2022-12-18T12:27:08.115Z,75.19
2022-12-18T12:29:52.499Z,74.95
2022-12-18T12:32:36.157Z,74.91
2022-12-18T12:35:21.089Z,74.66
2022-12-18T12:38:01.529Z,74.47
2022-12-18T12:41:00.552Z,74.16
2022-12-18T12:43:36.378Z,74.28
2022-12-18T12:46:11.258Z,74.85
2022-12-18T12:48:48.733Z,74.76
2022-12-18T12:51:24.003Z,75.13
2022-12-18T12:53:59.016Z,74.85
2022-12-18T12:56:48.802Z,75.34
2022-12-18T12:59:27.888Z,75.81
2022-12-18T13:02:07.431Z,75.88
2022-12-18T13:04:45.715Z,75.64
2022-12-18T13:07:23.865Z,75.51
2022-12-18T13:10:26.962Z,75.67
2022-12-18T13:13:03.440Z,75.14
2022-12-18T13:16:06.599Z,74.90
2022-12-18T13:18:39.900Z,74.92
2022-12-18T13:21:23.179Z,75.18
2022-12-18T13:23:55.525Z,75.10
2022-12-18T13:26:37.182Z,75.29
2022-12-18T13:29:09.361Z,74.72
2022-12-18T13:32:04.246Z,75.22
2022-12-18T13:34:36.418Z,76.00
2022-12-18T13:37:45.145Z,75.76
2022-12-18T13:40:58.149Z,75.88
2022-12-18T13:43:33.959Z,76.13
2022-12-18T13:46:23.589Z,75.63
2022-12-18T13:49:05.785Z,75.62
2022-12-18T13:51:41.999Z,74.86
2022-12-18T13:54:27.417Z,75.02
2022-12-18T13:56:58.988Z,75.55
2022-12-18T13:59:35.663Z,75.41
2022-12-18T14:02:17.601Z,75.65
2022-12-18T14:04:53.173Z,75.80
2022-12-18T14:07:27.186Z,75.61
2022-12-18T14:10:26.041Z,75.64
2022-12-18T14:13:00.371Z,75.12
2022-12-18T14:15:37.573Z,74.70
2022-12-18T14:18:23.264Z,74.65
2022-12-18T14:20:57.638Z,74.53
2022-12-18T14:23:35.713Z,74.55
2022-12-18T14:26:28.881Z,74.81
2022-12-18T14:29:02.882Z,75.07
2022-12-18T14:31:36.268Z,75.59
2022-12-18T14:34:07.882Z,75.88
2022-12-18T14:36:41.260Z,75.75
2022-12-18T14:39:21.100Z,75.70
2022-12-18T14:41:55.157Z,75.86
2022-12-18T14:44:34.564Z,75.63
2022-12-18T14:47:18.760Z,75.62
2022-12-18T14:49:52.186Z,75.86
2022-12-18T14:52:30.516Z,75.95
2022-12-18T14:55:02.501Z,76.22
2022-12-18T14:57:41.982Z,75.97
2022-12-18T15:00:25.626Z,75.92
2022-12-18T15:02:59.478Z,75.97
2022-12-18T15:05:34.667Z,75.66
2022-12-18T15:08:21.733Z,75.59
2022-12-18T15:10:55.727Z,75.68
2022-12-18T15:13:30.357Z,75.40
2022-12-18T15:16:14.759Z,74.90
2022-12-18T15:18:56.423Z,74.98
2022-12-18T15:21:32.412Z,75.19
2022-12-18T15:24:06.027Z,75.04
2022-12-18T15:26:42.957Z,75.08
2022-12-18T15:29:28.061Z,75.02
2022-12-18T15:32:23.873Z,75.28
2022-12-18T15:35:15.184Z,75.29
2022-12-18T15:37:49.120Z,75.12
2022-12-18T15:40:27.146Z,75.20
2022-12-18T15:43:18.643Z,75.16
2022-12-18T15:45:52.239Z,74.65
2022-12-18T15:48:26.848Z,74.30
2022-12-18T15:51:02.167Z,74.42
2022-12-18T15:53:37.833Z,74.30
2022-12-18T15:56:35.413Z,74.59
2022-12-18T15:59:14.810Z,74.86
2022-12-18T16:01:50.739Z,75.08
2022-12-18T16:04:27.177Z,75.07
2022-12-18T16:07:17.638Z,75.00
2022-12-18T16:09:54.707Z,75.24
2022-12-18T16:12:31.116Z,75.11
2022-12-18T16:15:06.791Z,75.05
2022-12-18T16:17:43.891Z,74.98
2022-12-18T16:20:20.766Z,74.69
2022-12-18T16:22:58.168Z,74.78
2022-12-18T16:25:32.952Z,74.94
2022-12-18T16:28:06.756Z,74.97
2022-12-18T16:30:45.435Z,75.00
2022-12-18T16:33:18.815Z,75.31
2022-12-18T16:36:00.426Z,75.56
2022-12-18T16:38:35.864Z,75.20
2022-12-18T16:41:38.152Z,75.28
2022-12-18T16:44:15.935Z,75.37
2022-12-18T16:46:50.051Z,75.22
2022-12-18T16:49:27.752Z,75.09
2022-12-18T16:52:02.672Z,75.46
2022-12-18T16:54:37.550Z,74.71
2022-12-18T16:57:13.635Z,74.80
2022-12-18T16:59:51.467Z,75.03
2022-12-18T17:02:29.197Z,75.06
2022-12-18T17:05:04.356Z,75.28
2022-12-18T17:07:39.729Z,75.31
2022-12-18T17:10:15.465Z,75.22
2022-12-18T17:12:48.273Z,74.61
2022-12-18T17:15:22.705Z,74.84
2022-12-18T17:17:57.091Z,75.43
2022-12-18T17:20:31.517Z,74.54
2022-12-18T17:23:08.157Z,74.25
2022-12-18T17:25:44.677Z,74.42
2022-12-18T17:28:17.541Z,74.47
2022-12-18T17:30:51.044Z,74.28
2022-12-18T17:33:24.282Z,74.18
2022-12-18T17:36:02.113Z,74.34
2022-12-18T17:38:36.940Z,74.92
2022-12-18T17:41:12.338Z,74.90
2022-12-18T17:43:52.559Z,75.11
2022-12-18T17:46:32.177Z,74.35
2022-12-18T17:49:07.057Z,74.33
2022-12-18T17:51:43.369Z,74.22
2022-12-18T17:54:19.333Z,74.56
2022-12-18T17:56:57.021Z,74.43
2022-12-18T17:59:34.181Z,74.17
2022-12-18T18:02:08.091Z,74.11
2022-12-18T18:04:42.496Z,74.86
2022-12-18T18:07:20.821Z,74.48
2022-12-18T18:09:55.594Z,74.72
2022-12-18T18:12:49.411Z,75.01
2022-12-18T18:15:25.127Z,74.82
2022-12-18T18:17:58.974Z,75.08
2022-12-18T18:20:33.565Z,75.11
2022-12-18T18:23:07.251Z,74.67
2022-12-18T18:25:44.724Z,74.98
2022-12-18T18:28:18.979Z,74.62
2022-12-18T18:30:52.589Z,74.93
2022-12-18T18:33:27.050Z,74.68
2022-12-18T18:36:01.332Z,75.08
2022-12-18T18:38:35.559Z,74.97
2022-12-18T18:41:10.378Z,74.63
2022-12-18T18:43:42.454Z,74.09
2022-12-18T18:46:19.349Z,74.66
2022-12-18T18:48:52.604Z,74.46
2022-12-18T18:51:28.863Z,74.44
2022-12-18T18:54:06.123Z,73.98
2022-12-18T18:59:33.297Z,73.66
2022-12-18T19:02:07.133Z,73.50
2022-12-18T19:04:44.736Z,73.51
2022-12-18T19:07:29.469Z,73.13
2022-12-18T19:10:07.265Z,72.73
2022-12-18T19:12:57.613Z,72.53
2022-12-18T19:15:30.962Z,73.19
2022-12-18T19:18:04.833Z,73.45
2022-12-18T19:20:42.006Z,73.95
2022-12-18T19:23:15.293Z,74.02
2022-12-18T19:25:50.762Z,74.44
2022-12-18T19:28:34.456Z,73.50
2022-12-18T19:31:13.652Z,74.07
2022-12-18T19:33:52.630Z,73.68
2022-12-18T19:36:28.744Z,73.90
2022-12-18T19:39:06.599Z,73.48
2022-12-18T19:41:40.970Z,73.41
2022-12-18T19:44:14.497Z,73.43
2022-12-18T19:46:52.224Z,73.62
2022-12-18T19:49:34.707Z,73.60
2022-12-18T19:52:12.510Z,74.16
2022-12-18T19:54:45.998Z,73.85
2022-12-18T19:57:19.220Z,73.58
2022-12-18T19:59:53.147Z,73.93
2022-12-18T20:02:29.726Z,73.53
2022-12-18T20:05:08.994Z,73.25
2022-12-18T20:07:42.394Z,73.99
2022-12-18T20:10:19.492Z,73.74
2022-12-18T20:12:55.243Z,73.84
2022-12-18T20:15:29.908Z,73.76
2022-12-18T20:18:02.989Z,74.18
2022-12-18T20:20:37.421Z,74.16
2022-12-18T20:23:08.214Z,74.01
2022-12-18T20:25:41.887Z,74.17
2022-12-18T20:28:15.325Z,73.97
2022-12-18T20:30:49.531Z,74.10
2022-12-18T20:33:30.418Z,73.78
2022-12-18T20:36:07.737Z,74.13
2022-12-18T20:38:40.933Z,73.63
2022-12-18T20:41:22.386Z,74.50
2022-12-18T20:43:55.693Z,74.89
2022-12-18T20:46:28.330Z,74.06
2022-12-18T20:49:02.204Z,74.30
2022-12-18T20:51:35.957Z,73.55
2022-12-18T20:54:12.899Z,74.35
2022-12-18T20:56:59.217Z,74.18
2022-12-18T20:59:37.680Z,74.80
2022-12-18T21:02:09.793Z,74.67
2022-12-18T21:04:42.873Z,74.36
2022-12-18T21:07:16.199Z,74.08
2022-12-18T21:09:50.438Z,73.93
2022-12-18T21:12:43.949Z,74.17
2022-12-18T21:15:31.761Z,74.28
2022-12-18T21:18:03.711Z,74.70
2022-12-18T21:20:36.395Z,73.91
2022-12-18T21:23:16.470Z,74.40
2022-12-18T21:25:54.724Z,74.45
2022-12-18T21:28:32.295Z,74.48
2022-12-18T21:31:08.139Z,74.74
2022-12-18T21:33:43.518Z,74.94
2022-12-18T21:36:16.270Z,74.10
2022-12-18T21:38:48.732Z,74.21
2022-12-18T21:41:42.276Z,74.17
2022-12-18T21:44:17.814Z,74.08
2022-12-18T21:46:58.232Z,74.19
2022-12-18T21:49:33.808Z,74.41
2022-12-18T21:52:06.178Z,74.14
2022-12-18T21:54:38.771Z,74.89
2022-12-18T21:57:13.808Z,74.52
2022-12-18T21:59:47.354Z,74.41
2022-12-18T22:02:21.586Z,74.86
2022-12-18T22:04:55.815Z,74.23
2022-12-18T22:07:29.345Z,73.94
2022-12-18T22:10:02.015Z,74.61
2022-12-18T22:12:43.742Z,74.07
2022-12-18T22:15:21.489Z,73.97
2022-12-18T22:18:00.352Z,73.49
2022-12-18T22:20:32.776Z,72.95
2022-12-18T22:23:06.091Z,73.59
2022-12-18T22:25:39.907Z,73.43
2022-12-18T22:28:29.244Z,73.57
2022-12-18T22:31:01.300Z,73.50
2022-12-18T22:33:33.071Z,74.47
2022-12-18T22:36:14.123Z,74.38
2022-12-18T22:38:49.857Z,75.08
2022-12-18T22:41:22.661Z,74.57
2022-12-18T22:43:54.225Z,74.75
2022-12-18T22:46:28.506Z,74.74
2022-12-18T22:49:00.335Z,74.74
2022-12-18T22:51:32.374Z,74.79
2022-12-18T22:54:04.020Z,74.83
2022-12-18T22:56:35.501Z,75.28
2022-12-18T22:59:07.491Z,74.49
2022-12-18T23:01:40.379Z,74.04
2022-12-18T23:04:13.206Z,73.79
2022-12-18T23:06:45.621Z,73.77
2022-12-18T23:09:21.350Z,74.49
2022-12-18T23:11:52.916Z,74.69
2022-12-18T23:14:25.327Z,75.08
2022-12-18T23:16:57.161Z,75.74
2022-12-18T23:19:29.389Z,75.38
2022-12-18T23:22:05.038Z,75.32
2022-12-18T23:24:39.246Z,74.50
2022-12-18T23:27:11.602Z,74.22
2022-12-18T23:29:44.020Z,73.64
2022-12-18T23:32:16.976Z,73.91
2022-12-18T23:34:52.044Z,74.17
2022-12-18T23:37:56.965Z,73.92
2022-12-18T23:40:16.516Z,75.15
2022-12-18T23:42:48.129Z,75.03
2022-12-18T23:45:19.877Z,74.34
2022-12-18T23:47:51.488Z,74.18
2022-12-18T23:50:29.094Z,74.57
2022-12-18T23:53:05.266Z,74.25
2022-12-18T23:55:41.887Z,74.22
2022-12-18T23:58:19.892Z,74.82
